sensor_id;sensor_type;location;lat;lon;timestamp;pressure;altitude;pressure_sealevel;temperature;humidity
69524;BME280;56723;42.694;23.286;2023-02-14T00:00:29;96504.28;;;1.14;75.17
69524;BME280;56723;42.694;23.286;2023-02-14T00:02:56;96497.75;;;1.08;75.35
69524;BME280;56723;42.694;23.286;2023-02-14T00:05:23;96498.41;;;1.12;75.32
69524;BME280;56723;42.694;23.286;2023-02-14T00:07:49;96502.47;;;1.16;74.96
69524;BME280;56723;42.694;23.286;2023-02-14T00:10:16;96497.16;;;1.20;74.91
69524;BME280;56723;42.694;23.286;2023-02-14T00:12:43;96513.44;;;1.18;75.17
69524;BME280;56723;42.694;23.286;2023-02-14T00:15:10;96510.06;;;1.17;75.14
69524;BME280;56723;42.694;23.286;2023-02-14T00:17:52;96504.06;;;1.18;75.21
69524;BME280;56723;42.694;23.286;2023-02-14T00:20:21;96507.44;;;1.19;74.99
69524;BME280;56723;42.694;23.286;2023-02-14T00:22:48;96509.16;;;1.18;75.06
69524;BME280;56723;42.694;23.286;2023-02-14T00:25:16;96510.13;;;1.16;75.07
69524;BME280;56723;42.694;23.286;2023-02-14T00:27:44;96499.66;;;1.22;75.12
69524;BME280;56723;42.694;23.286;2023-02-14T00:30:12;96502.97;;;1.24;75.63
69524;BME280;56723;42.694;23.286;2023-02-14T00:32:40;96507.94;;;1.27;75.54
69524;BME280;56723;42.694;23.286;2023-02-14T00:35:08;96502.50;;;1.33;75.60
69524;BME280;56723;42.694;23.286;2023-02-14T00:37:35;96505.81;;;1.35;75.84
69524;BME280;56723;42.694;23.286;2023-02-14T00:40:05;96505.59;;;1.39;75.73
69524;BME280;56723;42.694;23.286;2023-02-14T00:42:32;96488.56;;;1.40;75.70
69524;BME280;56723;42.694;23.286;2023-02-14T00:44:59;96497.66;;;1.46;75.76
69524;BME280;56723;42.694;23.286;2023-02-14T00:47:26;96499.25;;;1.48;75.51
69524;BME280;56723;42.694;23.286;2023-02-14T00:49:53;96498.50;;;1.46;75.78
69524;BME280;56723;42.694;23.286;2023-02-14T00:52:20;96495.63;;;1.52;75.36
69524;BME280;56723;42.694;23.286;2023-02-14T00:54:48;96488.84;;;1.51;75.53
69524;BME280;56723;42.694;23.286;2023-02-14T00:57:14;96487.81;;;1.55;75.38
69524;BME280;56723;42.694;23.286;2023-02-14T00:59:41;96475.50;;;1.46;75.56
69524;BME280;56723;42.694;23.286;2023-02-14T01:02:08;96475.34;;;1.49;75.45
69524;BME280;56723;42.694;23.286;2023-02-14T01:04:35;96474.44;;;1.50;75.44
69524;BME280;56723;42.694;23.286;2023-02-14T01:07:02;96479.47;;;1.52;75.62
69524;BME280;56723;42.694;23.286;2023-02-14T01:09:29;96472.78;;;1.49;75.56
69524;BME280;56723;42.694;23.286;2023-02-14T01:11:56;96474.00;;;1.42;75.87
69524;BME280;56723;42.694;23.286;2023-02-14T01:14:23;96474.75;;;1.44;76.11
69524;BME280;56723;42.694;23.286;2023-02-14T01:16:50;96477.88;;;1.49;75.75
69524;BME280;56723;42.694;23.286;2023-02-14T01:19:17;96462.75;;;1.46;75.88
69524;BME280;56723;42.694;23.286;2023-02-14T01:21:43;96473.91;;;1.44;75.90
69524;BME280;56723;42.694;23.286;2023-02-14T01:24:11;96474.59;;;1.47;75.68
69524;BME280;56723;42.694;23.286;2023-02-14T01:26:41;96451.16;;;1.39;75.83
69524;BME280;56723;42.694;23.286;2023-02-14T01:29:08;96461.22;;;1.42;76.11
69524;BME280;56723;42.694;23.286;2023-02-14T03:43:41;96372.72;;;0.72;78.81
69524;BME280;56723;42.694;23.286;2023-02-14T03:46:14;96365.66;;;0.77;78.47
69524;BME280;56723;42.694;23.286;2023-02-14T03:48:44;96362.06;;;0.81;78.25
69524;BME280;56723;42.694;23.286;2023-02-14T03:51:12;96365.50;;;0.80;78.17
69524;BME280;56723;42.694;23.286;2023-02-14T03:53:46;96359.44;;;0.83;78.01
69524;BME280;56723;42.694;23.286;2023-02-14T03:59:08;96347.66;;;0.80;78.03
69524;BME280;56723;42.694;23.286;2023-02-14T04:01:58;96340.81;;;0.81;78.05
69524;BME280;56723;42.694;23.286;2023-02-14T04:04:27;96336.53;;;0.81;77.91
69524;BME280;56723;42.694;23.286;2023-02-14T06:40:35;96310.44;;;1.28;76.00
69524;BME280;56723;42.694;23.286;2023-02-14T06:43:02;96320.16;;;1.37;75.84
69524;BME280;56723;42.694;23.286;2023-02-14T06:45:29;96317.22;;;1.45;75.66
69524;BME280;56723;42.694;23.286;2023-02-14T06:47:57;96293.84;;;1.52;75.37
69524;BME280;56723;42.694;23.286;2023-02-14T06:50:25;96298.34;;;1.64;75.00
69524;BME280;56723;42.694;23.286;2023-02-14T06:52:52;96299.78;;;1.68;74.72
69524;BME280;56723;42.694;23.286;2023-02-14T06:55:19;96307.16;;;1.74;74.87
69524;BME280;56723;42.694;23.286;2023-02-14T06:57:46;96291.66;;;1.78;74.62
69524;BME280;56723;42.694;23.286;2023-02-14T07:00:13;96283.50;;;1.87;74.35
69524;BME280;56723;42.694;23.286;2023-02-14T07:02:40;96297.78;;;1.91;74.49
69524;BME280;56723;42.694;23.286;2023-02-14T07:05:08;96290.09;;;1.91;74.38
69524;BME280;56723;42.694;23.286;2023-02-14T07:07:35;96293.41;;;1.93;74.54
69524;BME280;56723;42.694;23.286;2023-02-14T07:10:02;96286.16;;;2.01;75.39
69524;BME280;56723;42.694;23.286;2023-02-14T07:12:29;96278.41;;;2.02;75.10
69524;BME280;56723;42.694;23.286;2023-02-14T07:14:56;96286.81;;;2.04;75.44
69524;BME280;56723;42.694;23.286;2023-02-14T07:17:23;96296.78;;;2.09;75.38
69524;BME280;56723;42.694;23.286;2023-02-14T07:19:49;96294.97;;;2.11;75.72
69524;BME280;56723;42.694;23.286;2023-02-14T08:11:54;96300.03;;;1.48;86.66
69524;BME280;56723;42.694;23.286;2023-02-14T08:14:41;96328.91;;;1.66;86.45
69524;BME280;56723;42.694;23.286;2023-02-14T08:17:10;96333.75;;;1.70;86.05
69524;BME280;56723;42.694;23.286;2023-02-14T08:19:39;96322.78;;;1.68;85.86
69524;BME280;56723;42.694;23.286;2023-02-14T08:22:06;96331.13;;;1.72;85.75
69524;BME280;56723;42.694;23.286;2023-02-14T08:24:33;96339.09;;;1.83;85.43
69524;BME280;56723;42.694;23.286;2023-02-14T08:27:00;96337.34;;;1.84;85.14
69524;BME280;56723;42.694;23.286;2023-02-14T08:29:27;96334.78;;;1.84;84.89
69524;BME280;56723;42.694;23.286;2023-02-14T08:31:54;96347.31;;;1.88;84.72
69524;BME280;56723;42.694;23.286;2023-02-14T08:34:23;96320.28;;;1.84;84.27
69524;BME280;56723;42.694;23.286;2023-02-14T08:36:49;96327.84;;;1.86;84.65
69524;BME280;56723;42.694;23.286;2023-02-14T08:39:17;96328.88;;;1.83;84.77
69524;BME280;56723;42.694;23.286;2023-02-14T08:41:44;96335.69;;;1.83;85.10
69524;BME280;56723;42.694;23.286;2023-02-14T08:44:11;96330.59;;;1.83;85.11
69524;BME280;56723;42.694;23.286;2023-02-14T08:46:38;96335.03;;;1.79;85.72
69524;BME280;56723;42.694;23.286;2023-02-14T08:49:05;96339.25;;;1.80;85.98
69524;BME280;56723;42.694;23.286;2023-02-14T08:51:32;96336.69;;;1.80;86.15
69524;BME280;56723;42.694;23.286;2023-02-14T09:21:35;96318.59;;;1.67;87.29
69524;BME280;56723;42.694;23.286;2023-02-14T09:24:02;96322.56;;;1.73;87.01
69524;BME280;56723;42.694;23.286;2023-02-14T09:26:29;96315.56;;;1.77;86.76
69524;BME280;56723;42.694;23.286;2023-02-14T09:28:56;96316.31;;;1.79;86.44
69524;BME280;56723;42.694;23.286;2023-02-14T09:31:23;96328.03;;;1.83;85.91
69524;BME280;56723;42.694;23.286;2023-02-14T09:33:51;96339.97;;;1.82;86.13
69524;BME280;56723;42.694;23.286;2023-02-14T09:36:37;96318.72;;;1.82;86.26
69524;BME280;56723;42.694;23.286;2023-02-14T09:39:03;96330.66;;;1.81;86.21
69524;BME280;56723;42.694;23.286;2023-02-14T09:46:49;96321.75;;;1.88;85.15
69524;BME280;56723;42.694;23.286;2023-02-14T09:49:23;96318.97;;;1.93;85.25
69524;BME280;56723;42.694;23.286;2023-02-14T09:51:57;96306.78;;;1.98;84.86
69524;BME280;56723;42.694;23.286;2023-02-14T09:54:28;96322.19;;;1.96;84.87
69524;BME280;56723;42.694;23.286;2023-02-14T09:56:59;96309.50;;;1.95;84.78
69524;BME280;56723;42.694;23.286;2023-02-14T09:59:45;96300.31;;;1.91;84.58
69524;BME280;56723;42.694;23.286;2023-02-14T10:07:59;96310.41;;;1.94;84.35
69524;BME280;56723;42.694;23.286;2023-02-14T10:10:35;96301.75;;;1.96;84.03
69524;BME280;56723;42.694;23.286;2023-02-14T10:13:18;96299.19;;;1.96;84.04
69524;BME280;56723;42.694;23.286;2023-02-14T10:15:54;96292.19;;;2.00;84.01
69524;BME280;56723;42.694;23.286;2023-02-14T10:18:28;96308.50;;;1.97;83.39
69524;BME280;56723;42.694;23.286;2023-02-14T10:21:00;96292.94;;;2.02;83.10
69524;BME280;56723;42.694;23.286;2023-02-14T10:23:49;96297.28;;;2.00;82.91
69524;BME280;56723;42.694;23.286;2023-02-14T10:26:29;96284.69;;;1.97;82.96
69524;BME280;56723;42.694;23.286;2023-02-14T10:28:58;96283.84;;;1.96;82.58
69524;BME280;56723;42.694;23.286;2023-02-14T11:05:34;96273.75;;;1.46;84.07
69524;BME280;56723;42.694;23.286;2023-02-14T11:08:34;96268.13;;;1.55;83.42
69524;BME280;56723;42.694;23.286;2023-02-14T11:11:19;96271.81;;;1.67;83.06
69524;BME280;56723;42.694;23.286;2023-02-14T11:13:47;96271.69;;;1.68;83.17
69524;BME280;56723;42.694;23.286;2023-02-14T11:16:28;96268.25;;;1.69;82.48
69524;BME280;56723;42.694;23.286;2023-02-14T11:21:56;96268.34;;;1.84;81.07
69524;BME280;56723;42.694;23.286;2023-02-14T11:24:38;96267.34;;;1.86;80.95
69524;BME280;56723;42.694;23.286;2023-02-14T11:32:15;96233.88;;;1.91;78.58
69524;BME280;56723;42.694;23.286;2023-02-14T11:39:53;96232.72;;;1.96;78.03
69524;BME280;56723;42.694;23.286;2023-02-14T11:42:40;96243.78;;;1.97;77.53
69524;BME280;56723;42.694;23.286;2023-02-14T11:45:35;96230.56;;;2.04;76.64
69524;BME280;56723;42.694;23.286;2023-02-14T11:48:14;96232.56;;;2.15;75.99
69524;BME280;56723;42.694;23.286;2023-02-14T11:56:09;96221.81;;;2.24;75.33
69524;BME280;56723;42.694;23.286;2023-02-14T11:58:55;96222.38;;;2.29;74.92
69524;BME280;56723;42.694;23.286;2023-02-14T12:01:34;96226.41;;;2.33;74.60
69524;BME280;56723;42.694;23.286;2023-02-14T12:04:10;96224.44;;;2.38;74.59
69524;BME280;56723;42.694;23.286;2023-02-14T12:06:39;96212.38;;;2.40;74.70
69524;BME280;56723;42.694;23.286;2023-02-14T12:12:03;96200.13;;;2.46;74.54
69524;BME280;56723;42.694;23.286;2023-02-14T12:14:40;96200.13;;;2.46;74.58
69524;BME280;56723;42.694;23.286;2023-02-14T12:19:41;96203.78;;;2.41;75.23
69524;BME280;56723;42.694;23.286;2023-02-14T12:22:15;96203.59;;;2.44;75.22
69524;BME280;56723;42.694;23.286;2023-02-14T12:24:56;96200.88;;;2.48;75.26
69524;BME280;56723;42.694;23.286;2023-02-14T12:27:32;96190.28;;;2.39;75.18
69524;BME280;56723;42.694;23.286;2023-02-14T12:30:11;96194.38;;;2.42;75.25
69524;BME280;56723;42.694;23.286;2023-02-14T12:32:46;96178.75;;;2.47;74.67
69524;BME280;56723;42.694;23.286;2023-02-14T12:35:25;96173.91;;;2.42;75.15
69524;BME280;56723;42.694;23.286;2023-02-14T12:43:52;96191.22;;;2.53;75.13
69524;BME280;56723;42.694;23.286;2023-02-14T12:55:28;96188.13;;;2.62;74.75
69524;BME280;56723;42.694;23.286;2023-02-14T12:58:09;96167.28;;;2.54;74.93
69524;BME280;56723;42.694;23.286;2023-02-14T13:22:24;96174.41;;;2.49;77.37
69524;BME280;56723;42.694;23.286;2023-02-14T13:24:56;96167.47;;;2.51;77.08
69524;BME280;56723;42.694;23.286;2023-02-14T13:27:31;96164.63;;;2.55;77.15
69524;BME280;56723;42.694;23.286;2023-02-14T13:30:03;96158.31;;;2.61;77.10
69524;BME280;56723;42.694;23.286;2023-02-14T13:32:38;96158.25;;;2.62;76.73
69524;BME280;56723;42.694;23.286;2023-02-14T13:35:06;96156.16;;;2.69;76.69
69524;BME280;56723;42.694;23.286;2023-02-14T13:37:34;96159.81;;;2.65;76.79
69524;BME280;56723;42.694;23.286;2023-02-14T13:40:08;96178.38;;;2.68;76.87
69524;BME280;56723;42.694;23.286;2023-02-14T13:42:51;96161.38;;;2.67;76.81
69524;BME280;56723;42.694;23.286;2023-02-14T13:51:02;96155.34;;;2.68;76.86
69524;BME280;56723;42.694;23.286;2023-02-14T13:53:39;96155.91;;;2.73;76.75
69524;BME280;56723;42.694;23.286;2023-02-14T13:58:53;96155.97;;;2.72;76.60
69524;BME280;56723;42.694;23.286;2023-02-14T14:01:40;96159.38;;;2.72;76.05
